Time;durP1;ratioP1;P1;durP2;ratioP2;P2;SDS_P1;SDS_P2;PMS_P1;PMS_P2;Temp;Humidity;BMP_temperature;BMP_pressure;BME280_temperature;BME280_humidity;BME280_pressure;Samples;Min_cycle;Max_cycle;Signal;HPM_P1;HPM_P2
2021/12/17 00:04:30;;;;;;;;;57.25;46.75;;;;;;;;5034549;28;45666;-80
2021/12/17 00:06:55;;;;;;;;;59.00;47.50;;;;;;;;5039512;28;45606;-80
2021/12/17 00:09:20;;;;;;;;;60.75;49.25;;;;;;;;5036553;28;48155;-80
2021/12/17 00:11:46;;;;;;;;;57.50;47.00;;;;;;;;5036058;28;45130;-79
2021/12/17 00:14:16;;;;;;;;;55.50;43.00;;;;;;;;5018788;28;45470;-80
2021/12/17 00:16:42;;;;;;;;;51.25;41.25;;;;;;;;5037208;28;45375;-77
2021/12/17 00:48:53;;;;;;;;;57.50;45.00;;;;;;;;5039076;28;45507;-80
2021/12/17 00:53:53;;;;;;;;;61.50;45.25;;;;;;;;5032459;28;45328;-80
2021/12/17 00:56:18;;;;;;;;;61.25;48.75;;;;;;;;5035979;28;45275;-79
2021/12/17 00:58:44;;;;;;;;;57.75;45.00;;;;;;;;5038370;28;45219;-79
2021/12/17 01:01:09;;;;;;;;;52.50;43.25;;;;;;;;5039402;28;46492;-80
2021/12/17 01:03:34;;;;;;;;;55.50;44.50;;;;;;;;5046919;28;44761;-79
2021/12/17 01:06:00;;;;;;;;;54.00;44.25;;;;;;;;5040543;28;45270;-78
2021/12/17 01:08:25;;;;;;;;;58.00;45.75;;;;;;;;5040681;28;45485;-78
2021/12/17 01:10:53;;;;;;;;;58.00;45.25;;;;;;;;5045544;28;46260;-79
2021/12/17 01:13:18;;;;;;;;;52.00;44.00;;;;;;;;5039344;28;45408;-80
2021/12/17 01:15:43;;;;;;;;;50.25;42.25;;;;;;;;5038194;28;45444;-80
2021/12/17 01:18:13;;;;;;;;;55.75;44.25;;;;;;;;5034370;28;45547;-80
2021/12/17 01:36:30;;;;;;;;;50.75;42.50;;;;;;;;5034883;28;45792;-79
2021/12/17 01:40:03;;;;;;;;;51.00;41.75;;;;;;;;5040005;28;45447;-81
2021/12/17 01:42:04;;;;;;;;;51.25;42.75;;;;;;;;5022904;28;45464;-79
2021/12/17 01:44:30;;;;;;;;;53.75;44.00;;;;;;;;5019950;28;45491;-80
2021/12/17 01:46:56;;;;;;;;;51.00;41.50;;;;;;;;5036842;28;45506;-80
2021/12/17 02:00:07;;;;;;;;;46.25;38.75;;;;;;;;5034341;28;45490;-79
2021/12/17 02:02:40;;;;;;;;;52.50;44.75;;;;;;;;5040856;28;46090;-80
2021/12/17 02:05:05;;;;;;;;;48.50;40.75;;;;;;;;5037727;28;45245;-80
2021/12/17 02:07:30;;;;;;;;;50.25;42.25;;;;;;;;5035774;28;45402;-80
2021/12/17 02:31:30;;;;;;;;;49.75;39.75;;;;;;;;5040862;28;45526;-79
2021/12/17 02:33:59;;;;;;;;;51.50;41.00;;;;;;;;5045298;28;47149;-79
2021/12/17 02:36:25;;;;;;;;;48.75;39.25;;;;;;;;5034722;28;45485;-79
2021/12/17 02:38:53;;;;;;;;;52.00;41.25;;;;;;;;5014824;28;45366;-79
2021/12/17 02:46:46;;;;;;;;;52.00;40.00;;;;;;;;5016296;28;45617;-78
2021/12/17 02:49:12;;;;;;;;;48.25;41.75;;;;;;;;5011703;28;45604;-78
2021/12/17 02:51:37;;;;;;;;;50.50;40.75;;;;;;;;5014129;28;45532;-77
2021/12/17 02:54:04;;;;;;;;;50.75;41.25;;;;;;;;5000242;28;48330;-78
2021/12/17 02:56:29;;;;;;;;;46.00;37.75;;;;;;;;5013682;28;47374;-78
2021/12/17 02:58:55;;;;;;;;;51.25;40.00;;;;;;;;5016416;28;45455;-78
2021/12/17 03:01:20;;;;;;;;;47.75;38.25;;;;;;;;5017994;28;45508;-78
2021/12/17 03:03:48;;;;;;;;;48.50;39.25;;;;;;;;5013509;28;46158;-79
2021/12/17 03:06:13;;;;;;;;;52.75;41.25;;;;;;;;5014390;28;45398;-78
2021/12/17 03:08:38;;;;;;;;;44.00;37.00;;;;;;;;5021690;28;45730;-78
2021/12/17 03:11:04;;;;;;;;;42.75;36.00;;;;;;;;5029143;28;45396;-78
2021/12/17 03:13:32;;;;;;;;;50.25;41.25;;;;;;;;5014591;28;46353;-78
2021/12/17 03:16:12;;;;;;;;;49.75;40.75;;;;;;;;5016570;28;45457;-78
2021/12/17 03:23:52;;;;;;;;;54.00;42.50;;;;;;;;5024669;28;45728;-80
2021/12/17 03:26:22;;;;;;;;;50.75;40.25;;;;;;;;5013245;28;45483;-80
2021/12/17 03:28:50;;;;;;;;;49.75;39.75;;;;;;;;5020744;28;45348;-79
2021/12/17 03:31:15;;;;;;;;;50.50;41.50;;;;;;;;5018045;28;45445;-79
2021/12/17 03:33:42;;;;;;;;;45.25;38.25;;;;;;;;5018532;28;46290;-79
2021/12/17 03:36:09;;;;;;;;;48.50;40.25;;;;;;;;5015769;28;45321;-79
2021/12/17 03:38:34;;;;;;;;;47.50;38.75;;;;;;;;5021785;28;45383;-79
2021/12/17 03:41:36;;;;;;;;;50.50;41.25;;;;;;;;5051790;28;45523;-79
2021/12/17 03:43:53;;;;;;;;;48.25;39.00;;;;;;;;5032477;28;46963;-79
2021/12/17 03:46:19;;;;;;;;;51.25;40.50;;;;;;;;5036340;28;45409;-79
2021/12/17 03:48:45;;;;;;;;;47.75;37.50;;;;;;;;5038773;28;45514;-79
2021/12/17 03:51:16;;;;;;;;;49.50;40.00;;;;;;;;5032721;28;45438;-79
2021/12/17 03:53:43;;;;;;;;;53.50;43.00;;;;;;;;5044723;28;46528;-79
2021/12/17 03:56:08;;;;;;;;;54.50;43.50;;;;;;;;5035280;28;45487;-79
2021/12/17 03:58:34;;;;;;;;;54.50;42.75;;;;;;;;5033858;28;45408;-79
2021/12/17 04:00:59;;;;;;;;;46.50;36.50;;;;;;;;5036251;28;45410;-79
2021/12/17 04:03:24;;;;;;;;;49.50;38.25;;;;;;;;5032550;28;47429;-80
2021/12/17 04:05:49;;;;;;;;;53.25;39.00;;;;;;;;5037751;28;45543;-78
2021/12/17 04:08:14;;;;;;;;;51.25;39.25;;;;;;;;5033350;28;45400;-78
2021/12/17 04:10:44;;;;;;;;;43.00;37.00;;;;;;;;5035222;28;45507;-79
2021/12/17 04:15:42;;;;;;;;;49.00;37.75;;;;;;;;5032221;28;45423;-78
2021/12/17 04:18:09;;;;;;;;;42.25;35.75;;;;;;;;5024384;28;45460;-79
2021/12/17 04:20:35;;;;;;;;;49.25;40.50;;;;;;;;5032463;28;45215;-80
2021/12/17 04:23:00;;;;;;;;;50.25;40.75;;;;;;;;5035085;28;47133;-80
2021/12/17 04:25:25;;;;;;;;;45.00;38.75;;;;;;;;5032620;28;45477;-79
2021/12/17 04:27:51;;;;;;;;;47.00;37.50;;;;;;;;5032627;28;45404;-79
2021/12/17 04:30:16;;;;;;;;;47.00;37.00;;;;;;;;5040176;28;45674;-79
2021/12/17 04:32:42;;;;;;;;;49.25;38.75;;;;;;;;5016313;28;46740;-79
2021/12/17 04:35:07;;;;;;;;;47.00;38.75;;;;;;;;5037525;28;45710;-78
2021/12/17 04:37:33;;;;;;;;;44.00;38.50;;;;;;;;5042507;28;45583;-78
2021/12/17 04:39:59;;;;;;;;;45.75;38.50;;;;;;;;5035589;28;45601;-78
2021/12/17 04:42:34;;;;;;;;;50.75;39.50;;;;;;;;5043565;28;46787;-78
2021/12/17 04:45:00;;;;;;;;;48.00;36.50;;;;;;;;5035192;28;45498;-78
2021/12/17 04:58:21;;;;;;;;;43.00;37.75;;;;;;;;5041808;28;45451;-79
2021/12/17 05:00:46;;;;;;;;;49.75;39.50;;;;;;;;5040105;28;45946;-79
2021/12/17 05:03:12;;;;;;;;;44.00;37.75;;;;;;;;5017462;28;47927;-80
2021/12/17 05:05:37;;;;;;;;;42.75;35.50;;;;;;;;5046200;28;45983;-79
2021/12/17 05:08:08;;;;;;;;;38.50;34.00;;;;;;;;5053481;28;44709;-80
2021/12/17 05:19:38;;;;;;;;;42.25;35.75;;;;;;;;4954990;28;45440;-79
2021/12/17 05:21:47;;;;;;;;;47.50;39.00;;;;;;;;4956096;28;45447;-80
2021/12/17 05:24:12;;;;;;;;;49.00;37.25;;;;;;;;4956400;28;47013;-79
2021/12/17 05:26:38;;;;;;;;;44.50;37.00;;;;;;;;4956300;28;45507;-79
2021/12/17 05:29:03;;;;;;;;;44.50;36.25;;;;;;;;4953854;28;45492;-79
2021/12/17 05:31:28;;;;;;;;;48.75;38.25;;;;;;;;4954927;28;47523;-79
2021/12/17 05:33:54;;;;;;;;;59.00;47.00;;;;;;;;4955419;28;45394;-79
2021/12/17 05:36:21;;;;;;;;;48.00;36.00;;;;;;;;4955115;28;45531;-79
2021/12/17 05:38:46;;;;;;;;;44.25;37.75;;;;;;;;4955361;28;45598;-79
2021/12/17 05:41:11;;;;;;;;;40.00;36.25;;;;;;;;4954003;28;45434;-80
2021/12/17 05:43:38;;;;;;;;;40.25;34.50;;;;;;;;4955357;28;45595;-78
2021/12/17 05:48:32;;;;;;;;;44.50;36.00;;;;;;;;5043351;28;45155;-80
2021/12/17 05:50:58;;;;;;;;;46.25;35.50;;;;;;;;5049686;28;45503;-80
2021/12/17 05:53:24;;;;;;;;;41.00;33.25;;;;;;;;5036300;28;46970;-81
2021/12/17 05:55:50;;;;;;;;;46.50;35.75;;;;;;;;5038514;28;45691;-78
2021/12/17 05:58:16;;;;;;;;;32.75;30.25;;;;;;;;5036008;28;45459;-79
2021/12/17 06:00:42;;;;;;;;;42.50;36.50;;;;;;;;5036139;28;45435;-78
2021/12/17 06:03:08;;;;;;;;;41.50;34.75;;;;;;;;5038247;28;46033;-79
2021/12/17 06:05:33;;;;;;;;;43.75;33.75;;;;;;;;5036100;28;45309;-79
2021/12/17 06:07:59;;;;;;;;;46.00;36.25;;;;;;;;5037167;28;45226;-80
2021/12/17 06:10:24;;;;;;;;;43.75;37.00;;;;;;;;5036131;28;45327;-80
2021/12/17 06:12:49;;;;;;;;;40.50;35.00;;;;;;;;5032429;28;45785;-80
2021/12/17 06:15:15;;;;;;;;;47.00;33.75;;;;;;;;5035107;28;45416;-79
2021/12/17 06:17:41;;;;;;;;;45.25;36.75;;;;;;;;5042372;28;45302;-80
2021/12/17 06:20:08;;;;;;;;;43.75;37.50;;;;;;;;5037130;28;45746;-80
2021/12/17 06:22:34;;;;;;;;;45.25;37.00;;;;;;;;5037318;28;48312;-80
2021/12/17 06:24:59;;;;;;;;;38.00;32.50;;;;;;;;5033754;28;45337;-80
2021/12/17 06:27:24;;;;;;;;;45.25;35.75;;;;;;;;5035518;28;45496;-79
2021/12/17 06:29:49;;;;;;;;;39.50;34.75;;;;;;;;5033932;28;45599;-80
2021/12/17 06:32:15;;;;;;;;;45.25;36.50;;;;;;;;5035022;28;46299;-80
2021/12/17 06:34:40;;;;;;;;;47.75;37.50;;;;;;;;5033925;28;45467;-80
2021/12/17 06:37:05;;;;;;;;;43.50;37.00;;;;;;;;5040372;28;45375;-80
2021/12/17 06:39:31;;;;;;;;;45.75;36.25;;;;;;;;5033877;28;45492;-80
2021/12/17 06:41:57;;;;;;;;;41.75;35.75;;;;;;;;5033718;28;46100;-80
2021/12/17 06:44:25;;;;;;;;;41.25;34.75;;;;;;;;5016518;28;45241;-80
2021/12/17 06:47:02;;;;;;;;;45.25;35.00;;;;;;;;5041628;28;45384;-80
2021/12/17 06:49:47;;;;;;;;;38.75;34.50;;;;;;;;5034459;28;45507;-80
2021/12/17 06:55:15;;;;;;;;;45.25;36.00;;;;;;;;5034480;28;45489;-79
2021/12/17 07:05:58;;;;;;;;;42.00;35.75;;;;;;;;5021217;28;45360;-80
2021/12/17 07:11:36;;;;;;;;;44.25;37.25;;;;;;;;5042034;28;45250;-79
2021/12/17 07:32:42;;;;;;;;;47.25;36.50;;;;;;;;5031993;28;45420;-80
2021/12/17 07:40:08;;;;;;;;;49.50;38.75;;;;;;;;5032384;28;45451;-81
2021/12/17 07:42:34;;;;;;;;;43.00;36.25;;;;;;;;5031880;28;45892;-80
2021/12/17 07:44:59;;;;;;;;;49.50;40.00;;;;;;;;5032556;28;46058;-81
2021/12/17 07:47:25;;;;;;;;;46.50;37.75;;;;;;;;5035514;28;45328;-80
2021/12/17 07:49:51;;;;;;;;;45.50;36.00;;;;;;;;5032709;28;45254;-81
2021/12/17 07:52:16;;;;;;;;;48.00;33.75;;;;;;;;5032783;28;45253;-80
2021/12/17 07:54:41;;;;;;;;;43.25;36.25;;;;;;;;5033110;28;46179;-80
2021/12/17 07:57:07;;;;;;;;;40.50;36.00;;;;;;;;5014871;28;47469;-81
2021/12/17 07:59:32;;;;;;;;;41.75;34.75;;;;;;;;5034379;28;45582;-78
2021/12/17 08:01:57;;;;;;;;;46.75;38.00;;;;;;;;5036038;28;45345;-80
2021/12/17 08:04:23;;;;;;;;;44.50;35.00;;;;;;;;5033264;28;45424;-79
2021/12/17 08:06:48;;;;;;;;;39.25;34.25;;;;;;;;5031703;28;45523;-81
2021/12/17 08:09:13;;;;;;;;;36.25;30.50;;;;;;;;5035594;28;45672;-80
2021/12/17 08:11:39;;;;;;;;;43.00;37.25;;;;;;;;5031379;28;45517;-81
2021/12/17 08:14:10;;;;;;;;;40.00;32.75;;;;;;;;5031800;28;46244;-80
2021/12/17 08:16:54;;;;;;;;;38.75;33.75;;;;;;;;5031252;28;45270;-82
2021/12/17 08:25:09;;;;;;;;;43.50;35.75;;;;;;;;4950099;28;45537;-81
2021/12/17 08:32:38;;;;;;;;;35.50;31.25;;;;;;;;4940026;28;45533;-79
2021/12/17 08:35:03;;;;;;;;;42.00;34.00;;;;;;;;4938555;28;45587;-80
2021/12/17 08:37:29;;;;;;;;;43.50;35.50;;;;;;;;4951076;28;45505;-80
2021/12/17 08:39:54;;;;;;;;;42.75;35.00;;;;;;;;4933567;28;45344;-80
2021/12/17 08:42:19;;;;;;;;;39.50;32.50;;;;;;;;4957086;28;45488;-80
2021/12/17 08:44:44;;;;;;;;;37.75;33.50;;;;;;;;4950574;28;45612;-80
2021/12/17 08:47:10;;;;;;;;;38.00;32.75;;;;;;;;4950927;28;45626;-80
2021/12/17 08:49:39;;;;;;;;;38.75;33.50;;;;;;;;4951620;28;45487;-80
2021/12/17 08:52:04;;;;;;;;;33.00;30.00;;;;;;;;4950614;28;45497;-81
2021/12/17 08:54:30;;;;;;;;;38.00;32.75;;;;;;;;4950358;28;45518;-80
2021/12/17 08:56:55;;;;;;;;;37.75;32.50;;;;;;;;4950973;28;45592;-79
2021/12/17 08:59:21;;;;;;;;;27.50;27.50;;;;;;;;4992808;28;45227;-79
2021/12/17 09:01:46;;;;;;;;;35.50;31.75;;;;;;;;5032706;28;45235;-81
2021/12/17 09:04:12;;;;;;;;;40.25;34.75;;;;;;;;5030330;28;46332;-80
2021/12/17 09:06:37;;;;;;;;;42.75;34.50;;;;;;;;5029824;28;45503;-78
2021/12/17 09:09:03;;;;;;;;;34.00;28.75;;;;;;;;5025607;28;45383;-82
2021/12/17 09:11:29;;;;;;;;;41.00;34.25;;;;;;;;5033760;28;45342;-80
2021/12/17 09:13:56;;;;;;;;;42.25;34.00;;;;;;;;5035130;28;46504;-81
2021/12/17 09:16:21;;;;;;;;;42.25;34.25;;;;;;;;5037216;28;45450;-81
2021/12/17 09:18:47;;;;;;;;;37.00;33.50;;;;;;;;5037563;28;46013;-80
2021/12/17 09:21:12;;;;;;;;;43.00;36.25;;;;;;;;5028064;28;45498;-80
2021/12/17 09:23:38;;;;;;;;;45.50;34.75;;;;;;;;5034309;28;45438;-80
2021/12/17 09:26:04;;;;;;;;;31.50;29.50;;;;;;;;5034261;28;45267;-79
2021/12/17 09:28:31;;;;;;;;;35.50;32.50;;;;;;;;5034002;28;45205;-80
2021/12/17 09:30:57;;;;;;;;;34.25;31.50;;;;;;;;5033738;28;45532;-80
2021/12/17 09:33:22;;;;;;;;;31.50;27.50;;;;;;;;5031822;28;45254;-78
2021/12/17 09:35:47;;;;;;;;;43.75;33.50;;;;;;;;5033490;28;45523;-81
2021/12/17 09:38:12;;;;;;;;;35.00;31.00;;;;;;;;5033702;28;45809;-80
2021/12/17 09:40:38;;;;;;;;;43.00;34.50;;;;;;;;5035892;28;45373;-79
2021/12/17 09:43:03;;;;;;;;;36.50;30.75;;;;;;;;5036190;28;46961;-80
2021/12/17 09:45:28;;;;;;;;;48.25;35.75;;;;;;;;5032075;28;45484;-78
2021/12/17 09:47:54;;;;;;;;;35.00;31.75;;;;;;;;5032218;28;45564;-79
2021/12/17 09:50:20;;;;;;;;;49.00;37.00;;;;;;;;5032680;28;45266;-80
2021/12/17 09:52:45;;;;;;;;;36.25;32.00;;;;;;;;5035685;28;46053;-79
2021/12/17 09:55:10;;;;;;;;;35.25;32.50;;;;;;;;5037629;28;45459;-80
2021/12/17 09:57:36;;;;;;;;;39.50;32.00;;;;;;;;5035912;28;45492;-81
2021/12/17 10:00:11;;;;;;;;;46.75;39.75;;;;;;;;5033414;28;47512;-79
2021/12/17 10:02:36;;;;;;;;;54.75;45.00;;;;;;;;5034514;28;46216;-80
2021/12/17 10:05:01;;;;;;;;;49.00;41.50;;;;;;;;5035912;28;45482;-79
2021/12/17 10:07:28;;;;;;;;;40.75;33.25;;;;;;;;5034828;28;45301;-79
2021/12/17 10:09:57;;;;;;;;;44.25;35.75;;;;;;;;5036629;28;45456;-80
2021/12/17 10:12:27;;;;;;;;;39.25;31.25;;;;;;;;5045362;28;45421;-80
2021/12/17 10:15:07;;;;;;;;;55.00;41.00;;;;;;;;5037640;28;45392;-79
2021/12/17 10:17:32;;;;;;;;;49.50;39.75;;;;;;;;5019370;28;45246;-80
2021/12/17 10:19:58;;;;;;;;;48.50;37.75;;;;;;;;5037080;28;45299;-81
2021/12/17 10:22:23;;;;;;;;;43.50;30.75;;;;;;;;5035103;28;47234;-81
2021/12/17 10:24:57;;;;;;;;;41.75;35.00;;;;;;;;5014276;28;45348;-80
2021/12/17 10:27:25;;;;;;;;;49.25;41.00;;;;;;;;5036606;28;45458;-80
2021/12/17 10:29:50;;;;;;;;;43.75;37.75;;;;;;;;5032891;28;45481;-81
2021/12/17 10:32:16;;;;;;;;;44.00;36.00;;;;;;;;5032746;28;45828;-80
2021/12/17 10:34:58;;;;;;;;;51.00;39.50;;;;;;;;5034989;28;45412;-81
2021/12/17 10:37:38;;;;;;;;;41.50;34.25;;;;;;;;5032298;28;45540;-80
2021/12/17 10:40:20;;;;;;;;;46.75;37.25;;;;;;;;5035371;28;45454;-80
2021/12/17 10:42:55;;;;;;;;;43.25;34.50;;;;;;;;5034743;28;47047;-80
2021/12/17 10:45:26;;;;;;;;;50.00;39.25;;;;;;;;5032975;28;45557;-79
2021/12/17 10:48:49;;;;;;;;;43.00;36.00;;;;;;;;5037258;28;45676;-79
2021/12/17 10:51:18;;;;;;;;;39.50;35.25;;;;;;;;5020774;28;45550;-80
2021/12/17 10:53:51;;;;;;;;;46.00;38.00;;;;;;;;5044377;28;46283;-82
2021/12/17 10:56:16;;;;;;;;;53.50;44.00;;;;;;;;5049351;28;45476;-81
2021/12/17 10:58:59;;;;;;;;;41.50;34.50;;;;;;;;5037559;28;45318;-80
2021/12/17 11:01:28;;;;;;;;;46.50;38.00;;;;;;;;5035445;28;45424;-81
2021/12/17 11:04:02;;;;;;;;;43.00;35.25;;;;;;;;5037579;28;46221;-81
2021/12/17 11:06:39;;;;;;;;;46.25;38.00;;;;;;;;5033259;28;45601;-81
2021/12/17 11:09:05;;;;;;;;;41.50;36.50;;;;;;;;5033186;28;45398;-79
2021/12/17 11:11:33;;;;;;;;;38.50;33.50;;;;;;;;5033141;28;45341;-81
2021/12/17 11:14:00;;;;;;;;;45.75;37.25;;;;;;;;5043866;28;46186;-81
2021/12/17 11:16:27;;;;;;;;;48.25;37.50;;;;;;;;5037255;28;45342;-81
2021/12/17 11:18:53;;;;;;;;;42.50;36.00;;;;;;;;5017250;28;45567;-79
2021/12/17 11:21:19;;;;;;;;;47.75;40.00;;;;;;;;5036747;28;45282;-80
2021/12/17 11:23:45;;;;;;;;;51.25;41.00;;;;;;;;5044852;28;45352;-81
2021/12/17 11:26:10;;;;;;;;;58.75;46.50;;;;;;;;5054118;28;45254;-81
2021/12/17 11:28:35;;;;;;;;;40.25;36.25;;;;;;;;5056128;28;44872;-80
2021/12/17 11:31:01;;;;;;;;;42.25;34.00;;;;;;;;5037132;28;45275;-79
2021/12/17 11:33:27;;;;;;;;;41.50;35.50;;;;;;;;5037277;28;46093;-80
2021/12/17 11:35:52;;;;;;;;;53.25;40.00;;;;;;;;5041386;28;45256;-80
2021/12/17 11:38:36;;;;;;;;;46.50;37.00;;;;;;;;5032284;28;45317;-80
2021/12/17 11:41:01;;;;;;;;;40.50;35.00;;;;;;;;5016849;28;45276;-81
2021/12/17 11:43:52;;;;;;;;;43.25;34.25;;;;;;;;5014492;28;45440;-81
2021/12/17 11:46:23;;;;;;;;;43.00;37.25;;;;;;;;5014346;28;45427;-80
2021/12/17 11:48:50;;;;;;;;;45.50;37.00;;;;;;;;5013588;28;45444;-80
2021/12/17 11:51:16;;;;;;;;;36.50;30.25;;;;;;;;5006398;28;45527;-80
2021/12/17 11:53:53;;;;;;;;;43.75;36.00;;;;;;;;5010838;28;45571;-80
2021/12/17 11:56:33;;;;;;;;;40.25;34.00;;;;;;;;5014105;28;45450;-81
2021/12/17 11:58:58;;;;;;;;;40.00;34.50;;;;;;;;5012293;28;45338;-80
2021/12/17 12:02:02;;;;;;;;;37.00;32.25;;;;;;;;5017133;28;45192;-80
2021/12/17 12:04:33;;;;;;;;;37.75;33.00;;;;;;;;4952604;28;45353;-81
2021/12/17 12:07:03;;;;;;;;;40.00;34.50;;;;;;;;4954565;28;45394;-80
2021/12/17 12:09:47;;;;;;;;;38.75;29.75;;;;;;;;4954135;28;45575;-79
2021/12/17 12:12:12;;;;;;;;;37.75;32.75;;;;;;;;4950351;28;45557;-80
2021/12/17 12:14:38;;;;;;;;;32.00;27.50;;;;;;;;4945520;28;47887;-81
2021/12/17 12:17:03;;;;;;;;;32.25;29.50;;;;;;;;4946694;28;45414;-80
2021/12/17 12:19:47;;;;;;;;;36.00;30.50;;;;;;;;4939687;28;45579;-80
2021/12/17 12:22:13;;;;;;;;;37.50;30.00;;;;;;;;4938889;28;45575;-80
2021/12/17 12:24:38;;;;;;;;;37.75;31.75;;;;;;;;4945145;28;45338;-81
2021/12/17 12:27:03;;;;;;;;;43.75;33.50;;;;;;;;4943593;28;45423;-80
2021/12/17 12:29:29;;;;;;;;;35.75;32.00;;;;;;;;4953903;28;45479;-80
2021/12/17 12:31:56;;;;;;;;;35.75;33.00;;;;;;;;4955499;28;45579;-82
2021/12/17 12:34:32;;;;;;;;;46.25;37.25;;;;;;;;4960389;28;46955;-81
2021/12/17 12:37:04;;;;;;;;;36.25;31.00;;;;;;;;5012994;28;45610;-81
2021/12/17 12:39:43;;;;;;;;;45.75;36.75;;;;;;;;5027593;28;45288;-81
2021/12/17 12:42:13;;;;;;;;;42.25;35.75;;;;;;;;5035599;28;45320;-81
2021/12/17 12:44:44;;;;;;;;;46.25;39.00;;;;;;;;5031059;28;46264;-80
2021/12/17 12:47:15;;;;;;;;;37.00;32.50;;;;;;;;5031321;28;45316;-80
2021/12/17 12:49:51;;;;;;;;;33.00;29.75;;;;;;;;5037175;28;45273;-81
2021/12/17 12:52:31;;;;;;;;;29.50;27.25;;;;;;;;5034359;28;45638;-79
2021/12/17 12:54:57;;;;;;;;;40.50;35.50;;;;;;;;5032440;28;45491;-79
2021/12/17 12:57:39;;;;;;;;;45.20;35.60;;;;;;;;5033770;28;45406;-81
2021/12/17 13:00:10;;;;;;;;;28.75;25.50;;;;;;;;5032815;28;45427;-82
2021/12/17 13:02:36;;;;;;;;;30.50;27.75;;;;;;;;5044556;28;45369;-81
2021/12/17 13:05:03;;;;;;;;;43.25;34.50;;;;;;;;5035370;28;45368;-79
2021/12/17 13:07:32;;;;;;;;;36.00;29.75;;;;;;;;5035442;28;45344;-80
2021/12/17 13:10:04;;;;;;;;;26.50;26.25;;;;;;;;5034256;28;45473;-81
2021/12/17 13:12:30;;;;;;;;;31.00;27.00;;;;;;;;5033635;28;45556;-80
2021/12/17 13:14:56;;;;;;;;;33.00;29.50;;;;;;;;5033808;28;46632;-79
2021/12/17 13:22:57;;;;;;;;;39.25;32.00;;;;;;;;5035644;28;45375;-80
2021/12/17 13:25:27;;;;;;;;;25.25;23.50;;;;;;;;5034306;28;46974;-79
2021/12/17 13:27:53;;;;;;;;;31.00;29.50;;;;;;;;5033392;28;45454;-80
2021/12/17 13:30:25;;;;;;;;;32.50;27.50;;;;;;;;5031224;28;45408;-80
2021/12/17 13:32:52;;;;;;;;;31.00;28.25;;;;;;;;5034904;28;45380;-80
2021/12/17 13:35:17;;;;;;;;;33.75;28.75;;;;;;;;5033417;28;46207;-81
2021/12/17 13:37:43;;;;;;;;;30.50;26.75;;;;;;;;5035485;28;45294;-81
2021/12/17 13:40:09;;;;;;;;;24.00;22.50;;;;;;;;5032291;28;45453;-81
2021/12/17 13:42:42;;;;;;;;;27.75;26.00;;;;;;;;5031346;28;45339;-81
2021/12/17 13:45:13;;;;;;;;;24.50;22.50;;;;;;;;5033089;28;47109;-81
2021/12/17 13:47:42;;;;;;;;;21.25;18.75;;;;;;;;5047331;28;45572;-81
2021/12/17 13:50:23;;;;;;;;;27.00;25.50;;;;;;;;5034369;28;45436;-80
2021/12/17 13:52:53;;;;;;;;;24.50;22.75;;;;;;;;5030901;28;45396;-79
2021/12/17 13:55:28;;;;;;;;;28.50;25.50;;;;;;;;5033111;28;45531;-81
2021/12/17 13:57:54;;;;;;;;;36.50;31.50;;;;;;;;5032563;28;45282;-81
2021/12/17 14:00:27;;;;;;;;;27.50;26.75;;;;;;;;5034921;28;45534;-80
2021/12/17 14:02:56;;;;;;;;;26.25;24.00;;;;;;;;5033958;28;45437;-80
2021/12/17 14:05:27;;;;;;;;;28.25;27.00;;;;;;;;5018285;28;48224;-80
2021/12/17 14:07:57;;;;;;;;;23.25;19.50;;;;;;;;5038701;28;45392;-80
2021/12/17 14:10:30;;;;;;;;;29.50;23.75;;;;;;;;5018299;28;45943;-80
2021/12/17 14:12:55;;;;;;;;;24.75;23.75;;;;;;;;5036574;28;45424;-80
2021/12/17 14:15:22;;;;;;;;;21.25;20.50;;;;;;;;5015142;28;48364;-80
2021/12/17 14:17:52;;;;;;;;;29.00;26.75;;;;;;;;5032749;28;45551;-80
2021/12/17 14:20:19;;;;;;;;;23.50;16.75;;;;;;;;5033270;28;45490;-80
2021/12/17 14:22:46;;;;;;;;;19.25;18.00;;;;;;;;5034701;28;45362;-80
2021/12/17 14:25:30;;;;;;;;;22.00;19.00;;;;;;;;5031863;28;45413;-80
2021/12/17 14:27:56;;;;;;;;;24.50;17.75;;;;;;;;5032444;28;45312;-80
2021/12/17 14:30:23;;;;;;;;;27.25;24.50;;;;;;;;5016444;28;45489;-80
2021/12/17 14:32:49;;;;;;;;;46.75;38.75;;;;;;;;5031221;28;45432;-80
2021/12/17 14:35:14;;;;;;;;;24.75;19.50;;;;;;;;5035129;28;46141;-80
2021/12/17 14:37:56;;;;;;;;;13.00;12.50;;;;;;;;5040022;28;45433;-80
2021/12/17 14:40:33;;;;;;;;;25.75;22.75;;;;;;;;5034680;28;45280;-80
2021/12/17 14:42:59;;;;;;;;;22.00;16.00;;;;;;;;5041168;28;45727;-80
2021/12/17 14:45:40;;;;;;;;;20.50;19.25;;;;;;;;5040634;28;47101;-80
2021/12/17 14:48:20;;;;;;;;;18.00;18.00;;;;;;;;5032194;28;45560;-79
2021/12/17 15:02:24;;;;;;;;;27.50;24.50;;;;;;;;5030306;28;45305;-80
2021/12/17 15:04:46;;;;;;;;;14.50;12.50;;;;;;;;5033035;28;45319;-79
2021/12/17 15:07:12;;;;;;;;;23.50;20.25;;;;;;;;5031630;28;47005;-80
2021/12/17 15:09:40;;;;;;;;;21.25;20.75;;;;;;;;5031686;28;45446;-80
2021/12/17 15:12:24;;;;;;;;;19.25;17.25;;;;;;;;5032112;28;45319;-78
2021/12/17 15:14:50;;;;;;;;;25.00;21.00;;;;;;;;5032051;28;45488;-81
2021/12/17 15:17:15;;;;;;;;;25.25;18.50;;;;;;;;5038098;28;45598;-81
2021/12/17 15:19:40;;;;;;;;;23.25;18.50;;;;;;;;5021512;28;45322;-81
2021/12/17 15:22:05;;;;;;;;;25.75;22.50;;;;;;;;5036413;28;45413;-79
2021/12/17 15:24:30;;;;;;;;;17.00;15.50;;;;;;;;5018662;28;45397;-81
2021/12/17 15:26:55;;;;;;;;;23.75;23.75;;;;;;;;5033554;28;45427;-80
2021/12/17 15:29:24;;;;;;;;;27.50;23.00;;;;;;;;5034735;28;45405;-79
2021/12/17 15:31:51;;;;;;;;;19.00;19.00;;;;;;;;5034965;28;45399;-81
2021/12/17 15:34:17;;;;;;;;;23.00;20.25;;;;;;;;5031351;28;45299;-81
2021/12/17 15:36:42;;;;;;;;;24.25;24.25;;;;;;;;5035732;28;45566;-81
2021/12/17 15:39:07;;;;;;;;;21.00;19.75;;;;;;;;5030090;28;45328;-81
2021/12/17 15:41:32;;;;;;;;;23.75;21.50;;;;;;;;5032184;28;45417;-80
2021/12/17 15:43:57;;;;;;;;;30.00;23.50;;;;;;;;5033855;28;45326;-81
2021/12/17 15:46:23;;;;;;;;;23.25;21.00;;;;;;;;5032449;28;45372;-80
2021/12/17 15:48:48;;;;;;;;;25.25;19.50;;;;;;;;5033089;28;45326;-81
2021/12/17 15:51:13;;;;;;;;;22.00;20.50;;;;;;;;5034814;28;45422;-80
2021/12/17 15:53:39;;;;;;;;;19.50;18.00;;;;;;;;5032315;28;45331;-81
2021/12/17 15:56:04;;;;;;;;;22.50;16.50;;;;;;;;5035729;28;46958;-81
2021/12/17 15:58:29;;;;;;;;;26.75;22.50;;;;;;;;5037319;28;45522;-80
2021/12/17 16:00:54;;;;;;;;;25.25;22.50;;;;;;;;5037876;28;45634;-80
2021/12/17 16:03:27;;;;;;;;;20.25;18.50;;;;;;;;5031558;28;45312;-82
2021/12/17 16:05:52;;;;;;;;;19.00;17.75;;;;;;;;5009079;28;47197;-81
2021/12/17 16:08:17;;;;;;;;;21.00;19.00;;;;;;;;5034253;28;45269;-81
2021/12/17 16:21:37;;;;;;;;;20.25;19.00;;;;;;;;5031024;28;45423;-81
2021/12/17 16:24:03;;;;;;;;;26.75;18.00;;;;;;;;5030565;28;45483;-81
2021/12/17 16:26:28;;;;;;;;;18.25;17.00;;;;;;;;5034419;28;45228;-79
2021/12/17 16:28:53;;;;;;;;;19.25;17.75;;;;;;;;5036476;28;45443;-80
2021/12/17 16:31:23;;;;;;;;;22.25;20.00;;;;;;;;5034726;28;45171;-81
2021/12/17 16:33:50;;;;;;;;;22.50;20.75;;;;;;;;5039959;28;45538;-81
2021/12/17 16:36:15;;;;;;;;;23.50;20.25;;;;;;;;5042616;28;45356;-82
2021/12/17 16:38:41;;;;;;;;;27.50;25.50;;;;;;;;5033523;28;45522;-81
2021/12/17 16:41:07;;;;;;;;;21.75;20.75;;;;;;;;5035032;28;45941;-81
2021/12/17 16:43:33;;;;;;;;;23.00;19.25;;;;;;;;5033686;28;45455;-81
2021/12/17 16:48:37;;;;;;;;;28.50;27.50;;;;;;;;5035838;28;45447;-81
2021/12/17 16:51:02;;;;;;;;;29.50;26.25;;;;;;;;5037440;28;45320;-80
2021/12/17 16:53:28;;;;;;;;;34.25;28.25;;;;;;;;5038481;28;45353;-81
2021/12/17 16:55:53;;;;;;;;;37.25;32.50;;;;;;;;5051936;28;45579;-81
2021/12/17 16:58:18;;;;;;;;;32.50;27.25;;;;;;;;5039807;28;45328;-81
2021/12/17 17:00:45;;;;;;;;;27.75;24.50;;;;;;;;5037024;28;45316;-80
2021/12/17 17:03:10;;;;;;;;;36.25;31.50;;;;;;;;5051845;28;45528;-81
2021/12/17 17:05:36;;;;;;;;;31.00;30.75;;;;;;;;5056981;28;45330;-80
2021/12/17 17:08:01;;;;;;;;;31.50;27.25;;;;;;;;5052482;28;45316;-81
2021/12/17 17:10:33;;;;;;;;;33.00;27.75;;;;;;;;5041255;28;45230;-81
2021/12/17 17:13:01;;;;;;;;;29.25;25.50;;;;;;;;5020774;28;45530;-82
2021/12/17 17:15:27;;;;;;;;;31.50;26.25;;;;;;;;5036205;28;45600;-81
2021/12/17 17:17:53;;;;;;;;;28.00;25.50;;;;;;;;5035907;28;45541;-81
2021/12/17 17:20:18;;;;;;;;;29.75;27.25;;;;;;;;5052577;28;45215;-80
2021/12/17 17:22:43;;;;;;;;;36.50;31.25;;;;;;;;5043716;28;45251;-82
2021/12/17 17:25:09;;;;;;;;;26.50;21.50;;;;;;;;5039395;28;46274;-81
2021/12/17 17:27:34;;;;;;;;;30.75;27.75;;;;;;;;5035772;28;45180;-81
2021/12/17 17:29:59;;;;;;;;;36.75;30.50;;;;;;;;5032291;28;45235;-82
2021/12/17 17:32:24;;;;;;;;;30.75;29.75;;;;;;;;5020885;28;45366;-81
2021/12/17 17:34:50;;;;;;;;;29.00;26.75;;;;;;;;5051342;28;45357;-82
2021/12/17 17:37:15;;;;;;;;;30.00;28.00;;;;;;;;5037369;28;45364;-82
2021/12/17 17:39:40;;;;;;;;;34.75;31.75;;;;;;;;5040294;28;44837;-82